SAN BERNARDINO INTERNATIONAL AIRPORT (SBD)

2022 AUG 1510:52Z
Elevation1159 Ft
Temperature23C 73F
Dew Point7C 45F
Altimeter29.89 inHg
Relative Humidity37%
WindCalm
SkyClear Below 12,000 Ft
Visibility10 SM
Present Weatherclear
METAR KSBD 151039Z AUTO 00000KT 10SM CLR 23/09 A2989 RMK AO2

For up-to-the-minute weather information at SBD, call onsite AWOS at (909) 382-0067.